Terminal Aerodrome Forecast
Issued by NWS Norman, OK

Home | Current Version | Previous Version | Text Only | Print | Product List | Glossary On
Versions: 1 2 3 4 5 6 7 8 9 10 11 12 13 14 15 16 17 18 19 20 21 22 23 24 25 26 27
000
FTUS44 KOUN 270646 AAA
TAFOKC
TAF AMD
KOKC 270646Z 2707/2806 02013G20KT P6SM BKN009
     FM270900 02018G26KT 5SM RA BR BKN008 OVC015
      TEMPO 2709/2712 3SM -TSRA BR OVC015CB
     FM271900 03016G24KT 5SM RA BR BKN008 OVC015=

USA.gov is the U.S. government's official web portal to all federal, state and local government web resources and services.